Time;durP1;ratioP1;P1;durP2;ratioP2;P2;SDS_P1;SDS_P2;PMS_P1;PMS_P2;Temp;Humidity;BMP_temperature;BMP_pressure;BME280_temperature;BME280_humidity;BME280_pressure;Samples;Min_cycle;Max_cycle;Signal;HPM_P1;HPM_P2
2021/12/25 00:01:23;;;;;;;1.60;0.60;;;-3.30;99.90;;;;;;4972948;28;20201;-68
2021/12/25 00:03:50;;;;;;;1.50;0.83;;;-3.40;99.90;;;;;;4979151;28;20222;-67
2021/12/25 00:06:17;;;;;;;1.53;0.60;;;-3.40;99.90;;;;;;4980414;28;20773;-68
2021/12/25 00:08:42;;;;;;;0.90;0.70;;;-3.40;99.90;;;;;;4971031;28;20214;-65
2021/12/25 00:11:10;;;;;;;2.47;0.97;;;-3.40;99.90;;;;;;4971753;28;20825;-72
2021/12/25 00:13:43;;;;;;;1.50;0.67;;;-3.40;99.90;;;;;;4978346;28;20195;-74
2021/12/25 00:16:08;;;;;;;1.33;0.63;;;-3.40;99.90;;;;;;4973686;28;20874;-70
2021/12/25 00:18:35;;;;;;;0.70;0.67;;;-3.40;99.90;;;;;;4977129;28;20195;-71
2021/12/25 00:21:02;;;;;;;0.70;0.70;;;-3.50;99.90;;;;;;4977767;28;20225;-69
2021/12/25 00:23:28;;;;;;;1.67;0.73;;;-3.50;99.90;;;;;;4974996;28;20678;-72
2021/12/25 00:26:01;;;;;;;3.83;0.90;;;-3.50;99.90;;;;;;4974968;28;20217;-68
2021/12/25 00:31:20;;;;;;;2.00;1.20;;;-3.50;99.90;;;;;;4977837;28;20194;-71
2021/12/25 00:36:17;;;;;;;5.40;2.10;;;-3.50;99.90;;;;;;4971426;28;20317;-68
2021/12/25 00:38:43;;;;;;;1.23;1.10;;;-3.50;99.90;;;;;;4968506;28;20238;-70
2021/12/25 00:41:11;;;;;;;2.17;1.10;;;-3.50;99.90;;;;;;4972669;28;20776;-68
2021/12/25 00:43:36;;;;;;;1.60;1.40;;;-3.40;99.90;;;;;;4984957;28;20196;-70
2021/12/25 00:46:02;;;;;;;0.83;0.83;;;-3.40;99.90;;;;;;4971762;28;20197;-68
2021/12/25 00:48:28;;;;;;;1.30;0.80;;;-3.40;99.90;;;;;;4977532;28;20233;-68
2021/12/25 00:50:54;;;;;;;1.27;0.70;;;-3.40;99.90;;;;;;4971907;28;20260;-72
2021/12/25 00:53:20;;;;;;;0.70;0.70;;;-3.30;99.90;;;;;;4968666;28;20202;-69
2021/12/25 00:55:45;;;;;;;1.60;0.90;;;-3.30;99.90;;;;;;4970649;28;20201;-68
2021/12/25 00:58:11;;;;;;;3.20;1.00;;;-3.30;99.90;;;;;;4969526;28;20321;-68
2021/12/25 01:00:38;;;;;;;1.23;0.90;;;-3.30;99.90;;;;;;4978776;28;20197;-71
2021/12/25 01:03:03;;;;;;;3.63;0.77;;;-3.30;99.90;;;;;;4973371;28;20294;-68
2021/12/25 01:05:29;;;;;;;2.70;1.03;;;-3.30;99.90;;;;;;4970093;28;20193;-73
2021/12/25 01:07:55;;;;;;;2.27;1.30;;;-3.30;99.90;;;;;;4979225;28;20770;-68
2021/12/25 01:10:21;;;;;;;0.73;0.73;;;-3.20;99.90;;;;;;4971538;28;20730;-68
2021/12/25 01:12:59;;;;;;;3.27;0.70;;;-3.20;99.90;;;;;;4969994;28;20292;-68
2021/12/25 01:15:38;;;;;;;2.20;0.80;;;-3.20;99.90;;;;;;4967728;28;20189;-67
2021/12/25 01:29:17;;;;;;;0.77;0.77;;;-3.20;99.90;;;;;;4971584;28;20244;-71
2021/12/25 01:32:06;;;;;;;5.50;3.67;;;-3.20;99.90;;;;;;4955583;28;20207;-68
2021/12/25 01:39:52;;;;;;;3.60;3.30;;;-3.10;99.90;;;;;;4973390;28;20230;-69
2021/12/25 01:47:52;;;;;;;5.43;3.70;;;-3.30;99.90;;;;;;4961623;28;20304;-71
2021/12/25 01:50:26;;;;;;;5.67;3.57;;;-3.30;99.90;;;;;;4977323;28;20192;-68
2021/12/25 01:52:53;;;;;;;6.27;3.80;;;-3.40;99.90;;;;;;4966407;28;20203;-71
2021/12/25 01:55:25;;;;;;;10.00;5.50;;;-3.40;99.90;;;;;;4973463;28;20203;-71
2021/12/25 01:57:53;;;;;;;7.63;4.77;;;-3.50;99.90;;;;;;4964793;28;20210;-72
2021/12/25 02:00:27;;;;;;;7.00;4.70;;;-3.50;99.90;;;;;;4967622;28;20200;-72
2021/12/25 02:02:54;;;;;;;11.37;5.20;;;-3.50;99.90;;;;;;4963007;28;20218;-70
2021/12/25 02:05:20;;;;;;;26.60;14.30;;;-3.60;99.90;;;;;;4973022;28;20214;-69
2021/12/25 02:07:46;;;;;;;23.70;11.40;;;-3.50;99.90;;;;;;4973567;28;20309;-70
2021/12/25 02:10:14;;;;;;;21.47;11.30;;;-3.60;99.90;;;;;;4976105;28;20673;-70
2021/12/25 02:12:40;;;;;;;14.17;7.97;;;-3.50;99.90;;;;;;4967111;28;20218;-72
2021/12/25 02:15:14;;;;;;;6.83;4.10;;;-3.50;99.90;;;;;;4974334;28;20220;-67
2021/12/25 02:20:31;;;;;;;5.60;1.60;;;-3.50;99.90;;;;;;4969936;28;20207;-70
2021/12/25 02:23:04;;;;;;;1.37;1.27;;;-3.50;99.90;;;;;;4972352;28;20207;-68
2021/12/25 02:25:33;;;;;;;1.30;1.20;;;-3.50;99.90;;;;;;4968587;28;20198;-69
2021/12/25 02:27:59;;;;;;;0.87;0.83;;;-3.50;99.90;;;;;;4979750;28;20264;-73
2021/12/25 02:30:24;;;;;;;2.40;1.57;;;-3.60;99.90;;;;;;4977575;28;20202;-68
2021/12/25 02:32:50;;;;;;;2.30;1.50;;;-3.60;99.90;;;;;;4967489;28;20286;-68
2021/12/25 02:35:17;;;;;;;1.57;0.77;;;-3.50;99.90;;;;;;4985496;28;20206;-69
2021/12/25 02:37:44;;;;;;;1.50;1.03;;;-3.60;99.90;;;;;;4978892;28;20208;-70
2021/12/25 02:40:11;;;;;;;1.07;0.90;;;-3.60;99.90;;;;;;4979386;28;20316;-74
2021/12/25 02:42:37;;;;;;;1.93;1.00;;;-3.60;99.90;;;;;;4981503;28;20210;-75
2021/12/25 02:45:05;;;;;;;1.27;0.90;;;-3.60;99.90;;;;;;4978049;28;20205;-69
2021/12/25 02:47:31;;;;;;;0.77;0.70;;;-3.60;99.90;;;;;;4970710;28;20301;-71
2021/12/25 02:49:57;;;;;;;2.53;1.70;;;-3.60;99.90;;;;;;4976228;28;20735;-68
2021/12/25 02:52:23;;;;;;;5.73;3.33;;;-3.60;99.90;;;;;;4983348;28;20202;-69
2021/12/25 02:54:48;;;;;;;2.40;1.47;;;-3.60;99.90;;;;;;4985422;28;20204;-69
2021/12/25 02:57:15;;;;;;;0.93;0.90;;;-3.60;99.90;;;;;;4982038;28;20324;-71
2021/12/25 02:59:40;;;;;;;1.93;1.23;;;-3.60;99.90;;;;;;4978146;28;20241;-70
2021/12/25 03:02:12;;;;;;;3.20;1.10;;;-3.60;99.90;;;;;;4976025;28;20205;-70
2021/12/25 03:04:41;;;;;;;0.60;0.60;;;-3.60;99.90;;;;;;4974503;28;20203;-68
2021/12/25 03:07:08;;;;;;;4.53;1.33;;;-3.70;99.90;;;;;;4973948;28;20625;-70
2021/12/25 03:09:34;;;;;;;1.83;1.20;;;-3.70;99.90;;;;;;4985252;28;20202;-71
2021/12/25 03:12:00;;;;;;;1.77;1.17;;;-3.80;99.90;;;;;;4976555;28;20206;-71
2021/12/25 03:14:36;;;;;;;1.10;1.00;;;-3.80;99.90;;;;;;4975949;28;20210;-67
2021/12/25 03:17:01;;;;;;;1.13;1.03;;;-3.80;99.90;;;;;;4968725;28;20287;-72
2021/12/25 03:19:32;;;;;;;2.67;1.00;;;-3.80;99.90;;;;;;4979428;28;20617;-71
2021/12/25 03:22:02;;;;;;;1.03;0.80;;;-3.80;99.90;;;;;;4974337;28;20716;-72
2021/12/25 03:24:28;;;;;;;1.70;0.93;;;-3.80;99.90;;;;;;4972266;28;20275;-70
2021/12/25 03:26:56;;;;;;;1.80;0.83;;;-3.80;99.90;;;;;;4982704;28;20289;-70
2021/12/25 03:29:23;;;;;;;1.20;1.10;;;-3.80;99.90;;;;;;4980215;28;20195;-70
2021/12/25 03:31:49;;;;;;;1.07;0.97;;;-3.90;99.90;;;;;;4974959;28;20214;-72
2021/12/25 03:34:15;;;;;;;2.43;1.33;;;-3.90;99.90;;;;;;4968152;28;20667;-73
2021/12/25 03:36:41;;;;;;;3.20;0.80;;;-3.90;99.90;;;;;;4973849;28;20217;-70
2021/12/25 03:39:06;;;;;;;1.93;1.30;;;-3.90;99.90;;;;;;4973031;28;20242;-71
2021/12/25 03:41:33;;;;;;;1.43;0.80;;;-4.00;99.90;;;;;;4970110;28;20344;-70
2021/12/25 03:44:00;;;;;;;1.07;0.80;;;-4.00;99.90;;;;;;4973494;28;20226;-70
2021/12/25 03:46:28;;;;;;;1.33;0.80;;;-4.00;99.90;;;;;;4977702;28;20190;-71
2021/12/25 03:59:16;;;;;;;1.83;0.80;;;-4.00;99.90;;;;;;4965923;28;20229;-65
2021/12/25 04:01:55;;;;;;;3.13;1.10;;;-4.10;99.90;;;;;;4984202;28;20686;-67
2021/12/25 04:04:33;;;;;;;2.23;0.80;;;-4.10;99.90;;;;;;4963262;28;20279;-66
2021/12/25 04:07:08;;;;;;;1.00;0.73;;;-4.00;99.90;;;;;;4967976;28;20197;-65
2021/12/25 04:09:35;;;;;;;2.73;1.10;;;-4.00;99.90;;;;;;4988484;28;20170;-64
2021/12/25 04:12:04;;;;;;;3.70;1.27;;;-4.00;99.90;;;;;;4983785;28;20243;-63
2021/12/25 04:14:30;;;;;;;2.80;0.90;;;-4.00;99.90;;;;;;4977523;28;20195;-63
2021/12/25 04:16:55;;;;;;;2.47;0.90;;;-4.10;99.90;;;;;;4984755;28;20189;-65
2021/12/25 04:19:21;;;;;;;2.40;1.43;;;-4.10;99.90;;;;;;4978062;28;20615;-65
2021/12/25 04:22:10;;;;;;;1.77;1.33;;;-4.10;99.90;;;;;;4975820;28;20719;-66
2021/12/25 04:24:39;;;;;;;2.30;1.40;;;-4.20;99.90;;;;;;4980358;28;20178;-65
2021/12/25 04:27:09;;;;;;;3.80;1.43;;;-4.20;99.90;;;;;;4977373;28;20229;-64
2021/12/25 04:29:41;;;;;;;3.07;1.07;;;-4.30;99.90;;;;;;4979341;28;20188;-64
2021/12/25 04:49:30;;;;;;;2.40;1.20;;;-4.30;99.90;;;;;;4965791;28;20221;-63
2021/12/25 05:02:24;;;;;;;1.87;1.63;;;-4.40;99.90;;;;;;4959319;28;20769;-61
2021/12/25 05:04:56;;;;;;;4.70;1.30;;;-4.40;99.90;;;;;;4975098;28;20198;-61
2021/12/25 05:07:22;;;;;;;6.13;2.17;;;-4.40;99.90;;;;;;4984753;28;20263;-62
2021/12/25 05:09:47;;;;;;;3.93;2.10;;;-4.40;99.90;;;;;;4971274;28;20181;-62
2021/12/25 05:12:13;;;;;;;1.83;1.47;;;-4.50;99.90;;;;;;4983962;28;20206;-63
2021/12/25 05:14:39;;;;;;;3.60;1.87;;;-4.50;99.90;;;;;;4978721;28;20207;-63
2021/12/25 05:17:06;;;;;;;4.13;3.27;;;-4.50;99.90;;;;;;4977881;28;20862;-63
2021/12/25 05:19:32;;;;;;;3.20;2.10;;;-4.50;99.90;;;;;;4973910;28;20272;-63
2021/12/25 05:21:57;;;;;;;3.07;1.97;;;-4.60;99.90;;;;;;4973513;28;20274;-63
2021/12/25 05:24:23;;;;;;;1.20;1.10;;;-4.60;99.90;;;;;;4979554;28;20182;-63
2021/12/25 05:26:48;;;;;;;2.57;1.67;;;-4.60;99.90;;;;;;4981313;28;20190;-63
2021/12/25 05:29:22;;;;;;;2.33;1.57;;;-4.60;99.90;;;;;;4980355;28;20297;-63
2021/12/25 05:31:47;;;;;;;3.33;1.10;;;-4.60;99.90;;;;;;4984213;28;20192;-63
2021/12/25 05:34:13;;;;;;;1.60;0.73;;;-4.60;99.90;;;;;;4973906;28;20202;-63
2021/12/25 05:36:38;;;;;;;0.80;0.67;;;-4.60;99.90;;;;;;4986412;28;20312;-63
2021/12/25 05:39:08;;;;;;;2.03;1.03;;;-4.60;99.90;;;;;;4976340;28;20236;-63
2021/12/25 05:41:34;;;;;;;2.90;0.97;;;-4.60;99.90;;;;;;4986375;28;20220;-63
2021/12/25 05:43:59;;;;;;;2.47;1.30;;;-4.60;99.90;;;;;;4971986;28;20238;-61
2021/12/25 05:46:26;;;;;;;2.03;0.90;;;-4.50;99.90;;;;;;4970793;28;20584;-61
2021/12/25 05:48:52;;;;;;;4.27;2.00;;;-4.50;99.90;;;;;;4975193;28;20201;-61
2021/12/25 05:51:18;;;;;;;1.70;1.57;;;-4.50;99.90;;;;;;4986025;28;20219;-61
2021/12/25 05:53:45;;;;;;;2.17;1.47;;;-4.50;99.90;;;;;;4972185;28;20222;-61
2021/12/25 05:56:10;;;;;;;1.70;1.20;;;-4.50;99.90;;;;;;4985979;28;20566;-61
2021/12/25 05:58:36;;;;;;;0.80;0.70;;;-4.50;99.90;;;;;;4982087;28;20552;-62
2021/12/25 06:01:03;;;;;;;0.90;0.90;;;-4.50;99.90;;;;;;4985081;28;20186;-61
2021/12/25 06:03:29;;;;;;;1.93;1.20;;;-4.70;99.90;;;;;;4978960;28;20213;-63
2021/12/25 06:05:56;;;;;;;3.23;1.10;;;-4.80;99.90;;;;;;4984891;28;20196;-62
2021/12/25 06:08:21;;;;;;;1.43;0.97;;;-4.90;99.90;;;;;;4971354;28;20323;-63
2021/12/25 06:10:47;;;;;;;1.10;0.70;;;-4.80;99.90;;;;;;4985375;28;20786;-61
2021/12/25 06:13:17;;;;;;;4.30;1.20;;;-4.80;99.90;;;;;;4969087;28;20216;-62
2021/12/25 06:15:43;;;;;;;2.40;1.40;;;-4.70;99.90;;;;;;4982886;28;20197;-61
2021/12/25 06:18:09;;;;;;;3.80;1.17;;;-4.70;99.90;;;;;;4977052;28;20216;-63
2021/12/25 06:20:35;;;;;;;0.80;0.80;;;-4.70;99.90;;;;;;4982865;28;20278;-62
2021/12/25 06:23:01;;;;;;;3.30;1.17;;;-4.70;99.90;;;;;;4974336;28;20233;-61
2021/12/25 06:25:27;;;;;;;0.90;0.90;;;-4.70;99.90;;;;;;4984637;28;20988;-63
2021/12/25 06:27:52;;;;;;;1.53;1.10;;;-4.60;99.90;;;;;;4975254;28;20489;-62
2021/12/25 06:30:18;;;;;;;1.80;1.13;;;-4.60;99.90;;;;;;4985305;28;20287;-62
2021/12/25 06:32:43;;;;;;;2.43;1.03;;;-4.50;99.90;;;;;;4975217;28;20208;-64
2021/12/25 06:35:09;;;;;;;2.83;1.20;;;-4.50;99.90;;;;;;4985492;28;20201;-62
2021/12/25 06:37:35;;;;;;;2.23;0.73;;;-4.50;99.90;;;;;;4974980;28;20196;-62
2021/12/25 06:40:00;;;;;;;2.47;1.20;;;-4.40;99.90;;;;;;4985263;28;20225;-62
2021/12/25 06:42:26;;;;;;;1.50;0.90;;;-4.40;99.90;;;;;;4983234;28;20632;-62
2021/12/25 06:44:51;;;;;;;0.77;0.77;;;-4.40;99.90;;;;;;4985536;28;20201;-62
2021/12/25 06:47:17;;;;;;;1.10;0.80;;;-4.40;99.90;;;;;;4983440;28;20248;-63
2021/12/25 06:49:42;;;;;;;2.77;1.20;;;-4.40;99.90;;;;;;4985369;28;20198;-62
2021/12/25 06:52:08;;;;;;;1.57;1.00;;;-4.40;99.90;;;;;;4980091;28;20220;-62
2021/12/25 06:54:33;;;;;;;2.97;1.10;;;-4.40;99.90;;;;;;4972435;28;20499;-63
2021/12/25 06:57:01;;;;;;;2.80;1.27;;;-4.40;99.90;;;;;;4982276;28;20500;-63
2021/12/25 06:59:28;;;;;;;1.90;1.23;;;-4.40;99.90;;;;;;4984971;28;20174;-63
2021/12/25 07:01:53;;;;;;;1.93;1.20;;;-4.40;99.90;;;;;;4983034;28;20206;-62
2021/12/25 07:04:19;;;;;;;0.93;0.87;;;-4.50;99.90;;;;;;4976933;28;20189;-62
2021/12/25 07:06:44;;;;;;;2.07;0.70;;;-4.50;99.90;;;;;;4983464;28;20217;-62
2021/12/25 07:09:10;;;;;;;3.37;1.30;;;-4.50;99.90;;;;;;4970556;28;20317;-61
2021/12/25 07:11:36;;;;;;;1.60;1.20;;;-4.50;99.90;;;;;;4983260;28;20192;-62
2021/12/25 07:14:04;;;;;;;3.30;1.30;;;-4.60;99.90;;;;;;4979619;28;20191;-62
2021/12/25 07:16:31;;;;;;;3.47;0.93;;;-4.60;99.90;;;;;;4983406;28;20236;-62
2021/12/25 07:18:56;;;;;;;1.30;1.20;;;-4.60;99.90;;;;;;4981402;28;20225;-62
2021/12/25 07:21:22;;;;;;;6.43;1.43;;;-4.70;99.90;;;;;;4983944;28;20225;-62
2021/12/25 07:23:47;;;;;;;2.23;0.90;;;-4.70;99.90;;;;;;4918301;28;20753;-62
2021/12/25 07:26:16;;;;;;;2.00;1.20;;;-4.70;99.90;;;;;;4981762;28;20754;-62
2021/12/25 07:28:42;;;;;;;4.40;1.30;;;-4.60;99.90;;;;;;4972410;28;20304;-61
2021/12/25 07:31:08;;;;;;;2.87;1.10;;;-4.70;99.90;;;;;;4982886;28;20312;-63
2021/12/25 07:33:36;;;;;;;2.37;1.20;;;-4.60;99.90;;;;;;4979817;28;20209;-61
2021/12/25 07:36:03;;;;;;;2.40;1.60;;;-4.60;99.90;;;;;;4981004;28;20618;-61
2021/12/25 07:38:29;;;;;;;1.00;1.00;;;-4.60;99.90;;;;;;4982580;28;20296;-62
2021/12/25 07:40:54;;;;;;;1.80;1.03;;;-4.60;99.90;;;;;;4984815;28;20319;-62
2021/12/25 07:43:20;;;;;;;3.43;1.50;;;-4.60;99.90;;;;;;4979811;28;20674;-62
2021/12/25 07:45:47;;;;;;;1.97;1.20;;;-4.60;99.90;;;;;;4988023;28;20193;-63
2021/12/25 07:48:14;;;;;;;2.13;1.33;;;-4.50;99.90;;;;;;4985959;28;20236;-62
2021/12/25 07:50:40;;;;;;;1.93;1.47;;;-4.50;99.90;;;;;;4986088;28;20197;-62
2021/12/25 07:53:06;;;;;;;3.80;2.00;;;-4.50;99.90;;;;;;4985746;28;20200;-61
2021/12/25 07:55:32;;;;;;;3.77;1.87;;;-4.60;99.90;;;;;;4972336;28;20637;-62
2021/12/25 07:58:01;;;;;;;2.80;2.17;;;-4.70;99.90;;;;;;4986074;28;20193;-63
2021/12/25 08:00:27;;;;;;;6.30;2.93;;;-4.80;99.90;;;;;;4976202;28;20190;-62
2021/12/25 08:02:53;;;;;;;5.10;2.90;;;-4.80;99.90;;;;;;4980617;28;20569;-62
2021/12/25 08:05:20;;;;;;;5.17;2.60;;;-4.80;99.90;;;;;;4976162;28;20548;-62
2021/12/25 08:07:45;;;;;;;4.90;3.17;;;-4.80;99.90;;;;;;4985835;28;20212;-63
2021/12/25 08:10:14;;;;;;;5.23;3.27;;;-4.90;99.90;;;;;;4974090;28;20193;-62
2021/12/25 08:12:45;;;;;;;5.77;2.80;;;-4.90;99.90;;;;;;4986178;28;20193;-62
2021/12/25 08:15:12;;;;;;;6.67;3.87;;;-5.00;99.90;;;;;;4972043;28;20181;-63
2021/12/25 08:17:38;;;;;;;6.07;3.23;;;-4.90;99.90;;;;;;4986263;28;20201;-62
2021/12/25 08:20:05;;;;;;;9.43;5.13;;;-4.90;99.90;;;;;;4983729;28;20198;-62
2021/12/25 08:22:31;;;;;;;10.27;3.40;;;-4.80;99.90;;;;;;4973482;28;20201;-62
2021/12/25 08:24:56;;;;;;;7.43;4.60;;;-4.70;99.90;;;;;;4983729;28;20189;-63
2021/12/25 08:27:22;;;;;;;10.00;3.43;;;-4.70;99.90;;;;;;4984010;28;20248;-62
2021/12/25 08:29:47;;;;;;;4.50;2.30;;;-4.60;99.90;;;;;;4974964;28;20185;-62
2021/12/25 08:32:13;;;;;;;3.07;2.27;;;-4.50;99.90;;;;;;4987472;28;20558;-62
2021/12/25 08:34:38;;;;;;;6.57;2.60;;;-4.40;99.90;;;;;;4974446;28;20212;-62
2021/12/25 08:37:05;;;;;;;2.10;1.90;;;-4.30;99.90;;;;;;4986854;28;20198;-62
2021/12/25 08:39:30;;;;;;;2.93;1.67;;;-4.20;99.90;;;;;;4975648;28;20971;-62
2021/12/25 08:42:01;;;;;;;3.20;1.87;;;-4.20;99.90;;;;;;4987424;28;20188;-62
2021/12/25 08:44:38;;;;;;;3.03;1.70;;;-4.10;99.90;;;;;;4971191;28;20212;-62
2021/12/25 08:47:10;;;;;;;0.90;0.90;;;-4.00;99.90;;;;;;4986404;28;20194;-62
2021/12/25 08:49:37;;;;;;;1.50;1.03;;;-3.90;99.90;;;;;;4983316;28;20197;-62
2021/12/25 08:52:10;;;;;;;1.00;0.90;;;-3.80;99.90;;;;;;4987275;28;20193;-62
2021/12/25 08:54:36;;;;;;;2.20;0.90;;;-3.80;99.90;;;;;;4984029;28;20196;-62
2021/12/25 08:57:03;;;;;;;1.00;1.00;;;-3.70;99.90;;;;;;4987223;28;20249;-62
2021/12/25 08:59:29;;;;;;;4.00;1.57;;;-3.70;99.90;;;;;;4971695;28;20209;-62
2021/12/25 09:01:55;;;;;;;1.93;1.13;;;-3.70;99.90;;;;;;4986936;28;20714;-62
2021/12/25 09:04:21;;;;;;;2.87;1.40;;;-3.70;99.90;;;;;;4975839;28;20208;-63
2021/12/25 09:06:47;;;;;;;3.77;1.53;;;-3.70;99.90;;;;;;4986973;28;20200;-62
2021/12/25 09:09:13;;;;;;;1.60;1.00;;;-3.80;99.90;;;;;;4974192;28;20227;-63
2021/12/25 09:11:39;;;;;;;1.53;1.20;;;-3.80;99.90;;;;;;4976523;28;20220;-62
2021/12/25 09:14:05;;;;;;;2.17;1.23;;;-3.80;99.90;;;;;;4970909;28;20218;-62
2021/12/25 09:16:31;;;;;;;2.00;1.40;;;-3.70;99.90;;;;;;4986661;28;20291;-62
2021/12/25 09:18:56;;;;;;;1.57;1.23;;;-3.60;99.90;;;;;;4975098;28;20645;-63
2021/12/25 09:21:22;;;;;;;2.27;1.20;;;-3.50;99.90;;;;;;4987175;28;20235;-63
2021/12/25 09:23:48;;;;;;;3.10;1.40;;;-3.40;99.90;;;;;;4981143;28;20201;-62
2021/12/25 09:26:14;;;;;;;1.73;1.03;;;-3.30;99.90;;;;;;4985765;28;20732;-62
2021/12/25 09:28:40;;;;;;;2.53;1.47;;;-3.30;99.90;;;;;;4972940;28;20230;-63
2021/12/25 09:31:06;;;;;;;2.17;1.70;;;-3.30;99.90;;;;;;4985243;28;20257;-62
2021/12/25 09:33:31;;;;;;;1.83;1.70;;;-3.50;99.90;;;;;;4983316;28;20206;-62
2021/12/25 09:35:57;;;;;;;1.47;1.30;;;-3.60;99.90;;;;;;4985956;28;20224;-61
2021/12/25 09:38:23;;;;;;;2.40;1.77;;;-3.70;99.90;;;;;;4984263;28;21008;-62
2021/12/25 09:40:49;;;;;;;3.00;1.60;;;-3.70;99.90;;;;;;4985536;28;20237;-61
2021/12/25 09:43:17;;;;;;;2.03;1.60;;;-3.60;99.90;;;;;;4984150;28;20267;-62
2021/12/25 09:45:43;;;;;;;3.53;1.67;;;-3.50;99.90;;;;;;4983620;28;20212;-62
2021/12/25 09:48:09;;;;;;;2.97;1.63;;;-3.40;99.90;;;;;;4982277;28;20229;-62
2021/12/25 09:50:35;;;;;;;2.87;1.53;;;-3.30;99.90;;;;;;4969999;28;20190;-62
2021/12/25 09:53:05;;;;;;;2.07;1.70;;;-3.20;99.90;;;;;;4983948;28;20807;-65
2021/12/25 09:55:31;;;;;;;2.03;1.40;;;-3.10;99.90;;;;;;4969479;28;20301;-63
2021/12/25 09:57:57;;;;;;;1.53;1.43;;;-3.10;99.90;;;;;;4978676;28;20739;-62
2021/12/25 10:00:23;;;;;;;2.33;1.67;;;-3.00;99.90;;;;;;4978629;28;20664;-62
2021/12/25 10:02:51;;;;;;;2.93;1.73;;;-3.00;99.90;;;;;;4979511;28;20743;-62
2021/12/25 10:05:34;;;;;;;2.00;1.40;;;-3.00;99.90;;;;;;4974445;28;20197;-63
2021/12/25 10:08:02;;;;;;;1.23;1.13;;;-3.00;99.90;;;;;;4976366;28;20591;-63
2021/12/25 10:10:55;;;;;;;4.13;2.00;;;-2.90;99.90;;;;;;4979890;28;20216;-63
2021/12/25 10:13:28;;;;;;;2.60;1.80;;;-2.80;99.90;;;;;;4982932;28;20209;-62
2021/12/25 10:15:57;;;;;;;2.50;1.80;;;-2.70;99.90;;;;;;4986053;28;20675;-62
2021/12/25 10:18:34;;;;;;;6.30;1.90;;;-2.80;99.90;;;;;;4983932;28;20594;-63
2021/12/25 10:21:27;;;;;;;2.83;2.33;;;-2.80;99.90;;;;;;4981056;28;20660;-64
2021/12/25 10:24:25;;;;;;;3.53;2.23;;;-2.50;99.90;;;;;;4969477;28;20220;-62
2021/12/25 10:26:51;;;;;;;5.27;2.23;;;-2.10;99.90;;;;;;4970951;28;20292;-62
2021/12/25 10:29:25;;;;;;;3.97;1.70;;;-1.60;99.90;;;;;;4972218;28;20308;-63
2021/12/25 10:31:54;;;;;;;5.47;1.87;;;-1.30;99.90;;;;;;4986409;28;20231;-62
2021/12/25 10:34:27;;;;;;;2.30;1.83;;;-0.90;99.90;;;;;;4967961;28;20534;-62
2021/12/25 10:36:54;;;;;;;2.00;1.60;;;-0.60;99.90;;;;;;4985545;28;20290;-63
2021/12/25 10:39:22;;;;;;;2.43;1.30;;;-0.20;99.90;;;;;;4979749;28;20230;-64
2021/12/25 10:41:57;;;;;;;2.93;1.70;;;0.20;99.90;;;;;;4982218;28;20212;-63
2021/12/25 10:44:34;;;;;;;2.60;1.90;;;0.40;99.90;;;;;;4974055;28;20195;-62
2021/12/25 10:47:03;;;;;;;2.87;2.00;;;0.60;99.90;;;;;;4969672;28;20187;-62
2021/12/25 10:49:33;;;;;;;4.97;1.70;;;0.80;99.80;;;;;;4983217;28;20841;-62
2021/12/25 10:52:19;;;;;;;2.90;1.90;;;0.90;99.30;;;;;;4973050;28;20181;-62
2021/12/25 10:54:55;;;;;;;1.20;1.10;;;0.90;98.40;;;;;;4974876;28;20277;-62
2021/12/25 10:57:38;;;;;;;2.47;1.73;;;0.90;99.00;;;;;;4984953;28;20205;-62
2021/12/25 11:00:12;;;;;;;3.37;1.70;;;1.00;99.10;;;;;;4965313;28;20228;-61
2021/12/25 11:02:45;;;;;;;3.87;1.40;;;1.10;97.80;;;;;;4983005;28;20196;-61
2021/12/25 11:05:33;;;;;;;1.93;1.57;;;1.10;97.60;;;;;;4973337;28;20210;-61
2021/12/25 11:08:22;;;;;;;3.03;1.97;;;1.30;97.40;;;;;;4965603;28;20219;-61
2021/12/25 11:10:55;;;;;;;1.93;1.23;;;1.30;97.50;;;;;;4959774;28;20587;-60
2021/12/25 11:13:30;;;;;;;2.27;1.47;;;1.70;98.10;;;;;;4984815;28;20674;-60
2021/12/25 11:16:30;;;;;;;2.67;1.37;;;2.10;97.10;;;;;;4972116;28;20238;-61
2021/12/25 11:19:11;;;;;;;2.63;1.37;;;2.40;96.80;;;;;;4985918;28;20216;-62
2021/12/25 11:21:43;;;;;;;1.57;1.30;;;3.00;94.20;;;;;;4979332;28;20181;-61
2021/12/25 11:24:15;;;;;;;3.83;1.50;;;3.00;92.20;;;;;;4986920;28;20207;-61
2021/12/25 11:26:44;;;;;;;2.60;1.77;;;2.90;92.70;;;;;;4975134;28;21039;-62
2021/12/25 11:29:12;;;;;;;2.50;1.40;;;3.40;92.30;;;;;;4986753;28;20217;-62
2021/12/25 11:31:39;;;;;;;1.97;1.03;;;3.70;90.80;;;;;;4975051;28;20189;-62
2021/12/25 11:34:05;;;;;;;0.90;0.80;;;4.20;89.80;;;;;;4982338;28;20194;-63
2021/12/25 11:36:30;;;;;;;1.07;1.03;;;4.50;88.90;;;;;;4983814;28;20211;-63
2021/12/25 11:38:56;;;;;;;1.43;1.00;;;4.80;87.20;;;;;;4984901;28;20197;-62
2021/12/25 11:41:30;;;;;;;3.30;1.17;;;5.20;83.90;;;;;;4977446;28;20287;-72
2021/12/25 11:43:56;;;;;;;1.43;0.90;;;5.50;81.70;;;;;;4985855;28;20202;-63
2021/12/25 11:46:35;;;;;;;2.67;1.17;;;5.50;79.30;;;;;;4981270;28;20204;-63
2021/12/25 11:49:10;;;;;;;3.60;1.50;;;6.00;76.80;;;;;;4980450;28;20769;-63
2021/12/25 11:51:39;;;;;;;1.93;1.03;;;6.40;74.40;;;;;;4970653;28;20541;-63
2021/12/25 11:57:48;;;;;;;1.70;1.60;;;7.30;67.70;;;;;;4978299;28;20180;-61
2021/12/25 11:59:52;;;;;;;2.37;1.60;;;7.30;69.70;;;;;;4960031;28;20217;-62
2021/12/25 12:02:47;;;;;;;1.33;1.23;;;7.30;70.80;;;;;;4987619;28;20284;-63
2021/12/25 12:05:22;;;;;;;2.80;1.83;;;7.60;66.90;;;;;;4975304;28;20758;-61
2021/12/25 12:07:57;;;;;;;2.30;1.70;;;7.70;64.90;;;;;;4984519;28;20248;-62
2021/12/25 12:10:45;;;;;;;3.97;1.60;;;7.80;67.00;;;;;;4973438;28;20211;-62
2021/12/25 12:13:17;;;;;;;1.97;1.50;;;7.70;65.80;;;;;;4985048;28;20200;-61
2021/12/25 12:15:45;;;;;;;1.67;1.50;;;7.70;64.50;;;;;;4979150;28;20211;-59
2021/12/25 12:18:27;;;;;;;3.10;1.67;;;7.90;64.00;;;;;;4987234;28;20204;-61
2021/12/25 12:20:59;;;;;;;3.13;1.40;;;7.70;64.80;;;;;;4972912;28;21060;-61
2021/12/25 12:24:24;;;;;;;2.77;1.57;;;7.80;63.10;;;;;;4925064;28;20598;-62
2021/12/25 12:26:43;;;;;;;3.27;1.40;;;8.00;62.00;;;;;;4979702;28;20250;-62
2021/12/25 12:29:09;;;;;;;2.07;1.33;;;8.10;61.90;;;;;;4981907;28;20676;-64
2021/12/25 12:31:40;;;;;;;1.30;1.20;;;8.10;59.40;;;;;;4981830;28;20194;-63
2021/12/25 12:34:38;;;;;;;1.07;1.07;;;7.60;60.80;;;;;;4979666;28;20193;-62
2021/12/25 12:37:18;;;;;;;2.40;1.30;;;7.80;60.00;;;;;;4980107;28;20584;-63
2021/12/25 12:40:06;;;;;;;5.40;1.50;;;7.70;61.60;;;;;;4977948;28;20230;-63
2021/12/25 12:42:41;;;;;;;1.57;1.43;;;8.00;61.10;;;;;;4968713;28;20326;-62
2021/12/25 12:45:18;;;;;;;4.00;1.60;;;8.30;58.30;;;;;;4983202;28;20201;-62
2021/12/25 12:48:11;;;;;;;5.47;1.70;;;8.60;56.00;;;;;;4974694;28;20210;-64
2021/12/25 12:50:39;;;;;;;1.37;1.20;;;8.90;57.40;;;;;;4975148;28;20206;-65
2021/12/25 12:53:07;;;;;;;2.53;1.60;;;9.00;56.80;;;;;;4987039;28;20685;-64
2021/12/25 12:55:39;;;;;;;6.87;1.73;;;9.60;55.20;;;;;;4971914;28;20215;-64
2021/12/25 12:58:34;;;;;;;2.10;1.57;;;9.20;55.00;;;;;;4975901;28;20196;-65
2021/12/25 13:01:10;;;;;;;1.73;1.20;;;7.90;56.30;;;;;;4969721;28;20211;-65
2021/12/25 13:03:36;;;;;;;6.87;4.70;;;7.00;55.70;;;;;;4976611;28;20223;-64
2021/12/25 13:06:06;;;;;;;1.67;1.57;;;6.00;56.90;;;;;;4977298;28;20209;-63
2021/12/25 13:08:36;;;;;;;2.20;1.40;;;5.10;58.10;;;;;;4958163;28;20217;-64
2021/12/25 13:11:23;;;;;;;1.83;1.60;;;4.10;59.50;;;;;;4975547;28;20255;-63
2021/12/25 13:13:54;;;;;;;2.93;1.50;;;2.90;62.60;;;;;;4971097;28;20225;-65
2021/12/25 13:16:24;;;;;;;2.33;1.37;;;2.10;66.70;;;;;;4968309;28;20181;-65
2021/12/25 13:18:55;;;;;;;4.77;1.93;;;1.40;69.20;;;;;;4986702;28;20283;-63
2021/12/25 13:21:26;;;;;;;4.13;2.70;;;0.80;72.70;;;;;;4979052;28;20765;-62
2021/12/25 13:23:56;;;;;;;3.57;1.30;;;0.40;76.60;;;;;;4984374;28;20200;-62
2021/12/25 13:26:33;;;;;;;1.73;1.27;;;0.00;82.30;;;;;;4975518;28;20615;-61
2021/12/25 13:29:01;;;;;;;1.63;1.30;;;-0.20;85.20;;;;;;4970963;28;20219;-63
2021/12/25 13:31:30;;;;;;;1.53;1.37;;;-0.20;89.80;;;;;;4978786;28;20208;-62
2021/12/25 13:33:59;;;;;;;2.27;1.20;;;-0.30;91.10;;;;;;4983829;28;20254;-63
2021/12/25 13:36:28;;;;;;;1.63;1.53;;;-0.40;91.80;;;;;;4971067;28;20215;-63
2021/12/25 13:39:11;;;;;;;2.47;1.50;;;-0.40;92.50;;;;;;4984030;28;20530;-63
2021/12/25 13:41:45;;;;;;;3.87;2.17;;;-0.40;94.10;;;;;;4979957;28;20227;-63
2021/12/25 13:44:23;;;;;;;2.70;1.33;;;-0.40;94.10;;;;;;4985853;28;22623;-63
2021/12/25 13:46:50;;;;;;;4.93;1.70;;;-0.40;94.80;;;;;;4971543;28;20196;-63
2021/12/25 13:49:42;;;;;;;3.77;2.30;;;-0.40;94.30;;;;;;4984095;28;20349;-63
2021/12/25 13:52:28;;;;;;;2.43;2.10;;;-0.50;95.60;;;;;;4973721;28;20198;-64
2021/12/25 13:55:10;;;;;;;3.53;1.63;;;-0.50;95.90;;;;;;4980883;28;20194;-63
2021/12/25 13:57:43;;;;;;;4.97;1.57;;;-0.60;96.50;;;;;;4982501;28;20196;-63
2021/12/25 14:00:16;;;;;;;3.67;2.23;;;-0.60;97.00;;;;;;4957009;28;20219;-63
2021/12/25 14:02:45;;;;;;;2.30;1.90;;;-0.60;97.80;;;;;;4958107;28;20198;-64
2021/12/25 14:05:11;;;;;;;5.10;2.30;;;-0.70;97.50;;;;;;4975254;28;20193;-64
2021/12/25 14:07:38;;;;;;;3.80;1.70;;;-0.80;97.30;;;;;;4980203;28;20711;-61
2021/12/25 14:10:20;;;;;;;1.70;1.60;;;-0.80;98.00;;;;;;4980274;28;20203;-62
2021/12/25 14:12:48;;;;;;;4.57;1.83;;;-0.80;97.40;;;;;;4975567;28;20304;-62